createdAt,value
2023-05-16T00:02:33.829Z,26.18
2023-05-16T00:07:36.611Z,26.13
2023-05-16T00:12:40.351Z,26.04
2023-05-16T00:17:46.805Z,25.97
2023-05-16T00:22:49.668Z,25.84
2023-05-16T00:27:52.590Z,25.76
2023-05-16T00:32:57.109Z,25.72
2023-05-16T00:37:59.903Z,25.65
2023-05-16T00:43:02.817Z,25.57
2023-05-16T00:48:07.055Z,25.53
2023-05-16T00:53:11.183Z,25.48
2023-05-16T00:58:14.092Z,25.44
2023-05-16T01:03:18.378Z,25.45
2023-05-16T01:08:21.631Z,25.40
2023-05-16T01:13:32.711Z,25.40
2023-05-16T01:18:44.294Z,25.31
2023-05-16T01:23:54.516Z,25.30
2023-05-16T01:28:59.439Z,25.23
2023-05-16T01:34:02.206Z,25.19
2023-05-16T01:39:12.955Z,25.15
2023-05-16T01:44:23.637Z,25.13
2023-05-16T01:49:29.868Z,25.10
2023-05-16T01:54:34.202Z,25.05
2023-05-16T01:59:40.306Z,25.04
2023-05-16T02:04:43.105Z,25.02
2023-05-16T02:09:45.940Z,24.98
2023-05-16T02:14:50.211Z,24.97
2023-05-16T02:19:53.342Z,24.96
2023-05-16T02:24:56.361Z,24.94
2023-05-16T02:30:00.581Z,24.90
2023-05-16T02:35:04.295Z,24.87
2023-05-16T02:40:09.052Z,24.84
2023-05-16T02:45:14.254Z,24.86
2023-05-16T02:50:17.147Z,24.77
2023-05-16T02:55:22.196Z,24.75
2023-05-16T03:00:27.010Z,24.73
2023-05-16T03:05:29.930Z,24.70
2023-05-16T03:10:32.893Z,24.66
2023-05-16T03:15:37.127Z,24.58
2023-05-16T03:20:39.906Z,24.52
2023-05-16T03:25:43.544Z,24.46
2023-05-16T03:30:48.969Z,24.38
2023-05-16T03:35:52.049Z,24.29
2023-05-16T03:40:55.226Z,24.28
2023-05-16T03:45:59.458Z,24.24
2023-05-16T03:51:02.263Z,24.21
2023-05-16T03:56:05.541Z,24.19
2023-05-16T04:01:09.714Z,24.17
2023-05-16T04:06:12.558Z,24.15
2023-05-16T04:11:15.399Z,24.13
2023-05-16T04:16:19.609Z,24.11
2023-05-16T04:21:22.524Z,24.09
2023-05-16T04:26:25.639Z,24.06
2023-05-16T04:31:30.049Z,24.05
2023-05-16T04:36:32.840Z,24.02
2023-05-16T04:41:36.160Z,23.99
2023-05-16T04:46:40.513Z,23.98
2023-05-16T04:51:43.684Z,23.97
2023-05-16T04:56:46.421Z,23.94
2023-05-16T05:01:50.603Z,23.93
2023-05-16T05:06:53.446Z,23.91
2023-05-16T05:11:56.290Z,23.89
2023-05-16T05:17:00.433Z,23.89
2023-05-16T05:22:03.264Z,23.89
2023-05-16T05:27:06.585Z,23.90
2023-05-16T05:32:10.915Z,23.92
2023-05-16T05:37:13.782Z,22.11
2023-05-16T05:42:16.585Z,21.68
2023-05-16T05:47:21.651Z,23.22
2023-05-16T05:52:24.692Z,23.35
2023-05-16T05:57:37.960Z,23.39
2023-05-16T06:02:43.531Z,23.46
2023-05-16T06:07:46.403Z,23.49
2023-05-16T06:12:49.614Z,23.51
2023-05-16T06:17:53.997Z,23.52
2023-05-16T06:22:57.028Z,23.54
2023-05-16T06:27:59.777Z,23.55
2023-05-16T06:33:04.081Z,23.57
2023-05-16T06:38:07.078Z,23.60
2023-05-16T06:43:09.946Z,23.60
2023-05-16T06:48:15.643Z,23.60
2023-05-16T06:53:18.732Z,23.60
2023-05-16T06:58:21.779Z,23.61
2023-05-16T07:03:26.528Z,23.63
2023-05-16T07:08:29.651Z,23.61
2023-05-16T07:13:34.346Z,23.62
2023-05-16T07:18:40.251Z,23.63
2023-05-16T07:23:43.161Z,23.63
2023-05-16T07:28:46.102Z,23.63
2023-05-16T07:33:50.478Z,23.64
2023-05-16T07:38:53.407Z,23.64
2023-05-16T07:43:56.422Z,23.66
2023-05-16T07:49:00.719Z,23.67
2023-05-16T07:54:04.136Z,23.68
2023-05-16T07:59:07.022Z,23.68
2023-05-16T08:04:11.460Z,23.70
2023-05-16T08:09:14.427Z,23.70
2023-05-16T08:14:17.299Z,23.73
2023-05-16T08:19:21.738Z,23.75
2023-05-16T08:24:24.765Z,23.78
2023-05-16T08:29:27.622Z,23.84
2023-05-16T08:34:33.351Z,23.92
2023-05-16T08:39:36.248Z,23.97
2023-05-16T08:44:39.301Z,23.99
2023-05-16T08:49:45.070Z,23.97
2023-05-16T08:55:05.642Z,24.01
2023-05-16T09:00:13.393Z,24.01
2023-05-16T09:05:19.345Z,24.02
2023-05-16T09:10:22.655Z,24.06
2023-05-16T09:15:33.112Z,24.05
2023-05-16T09:20:46.645Z,24.03
2023-05-16T09:25:49.586Z,24.02
2023-05-16T09:30:54.066Z,24.01
2023-05-16T09:35:59.609Z,24.02
2023-05-16T09:41:03.538Z,24.07
2023-05-16T09:46:06.747Z,24.06
2023-05-16T09:51:13.693Z,23.10
2023-05-16T09:56:17.509Z,22.76
2023-05-16T10:01:20.672Z,22.42
2023-05-16T10:06:25.744Z,22.29
2023-05-16T10:11:29.893Z,21.80
2023-05-16T10:16:34.573Z,22.09
2023-05-16T10:21:46.784Z,22.69
2023-05-16T10:26:55.027Z,22.93
2023-05-16T10:32:07.129Z,23.06
2023-05-16T10:37:16.226Z,23.18
2023-05-16T10:42:23.036Z,23.19
2023-05-16T10:47:26.293Z,23.27
2023-05-16T10:52:35.901Z,23.30
2023-05-16T10:57:39.520Z,23.29
2023-05-16T11:02:43.151Z,23.31
2023-05-16T11:08:04.466Z,23.37
2023-05-16T11:13:09.386Z,23.40
2023-05-16T11:18:16.712Z,23.42
2023-05-16T11:23:22.781Z,23.41
2023-05-16T11:28:27.178Z,23.38
2023-05-16T11:33:35.745Z,23.37
2023-05-16T11:38:43.371Z,23.37
2023-05-16T11:43:46.870Z,23.35
2023-05-16T11:48:49.904Z,23.41
2023-05-16T11:53:54.755Z,23.44
2023-05-16T11:58:59.469Z,23.49
2023-05-16T12:04:03.101Z,23.41
2023-05-16T12:09:10.597Z,23.35
2023-05-16T12:14:14.873Z,23.38
2023-05-16T12:19:18.111Z,23.43
2023-05-16T12:24:22.692Z,23.52
2023-05-16T12:29:27.206Z,23.60
2023-05-16T12:34:30.943Z,23.67
2023-05-16T12:39:40.070Z,23.72
2023-05-16T12:44:46.541Z,23.78
2023-05-16T12:49:51.334Z,23.80
2023-05-16T12:54:55.748Z,23.84
2023-05-16T12:59:58.636Z,23.92
2023-05-16T13:05:02.009Z,24.00
2023-05-16T13:10:07.829Z,24.04
2023-05-16T13:15:12.865Z,24.04
2023-05-16T13:20:15.991Z,23.75
2023-05-16T13:25:20.301Z,23.95
2023-05-16T13:30:23.233Z,24.01
2023-05-16T13:35:26.987Z,24.14
2023-05-16T13:40:31.896Z,24.16
2023-05-16T13:45:35.372Z,24.25
2023-05-16T13:50:44.103Z,24.33
2023-05-16T13:55:49.483Z,24.37
2023-05-16T14:00:52.948Z,24.44
2023-05-16T14:05:56.272Z,24.49
2023-05-16T14:11:00.470Z,24.48
2023-05-16T14:16:03.321Z,24.54
2023-05-16T14:21:06.618Z,24.53
2023-05-16T14:26:11.521Z,24.64
2023-05-16T14:31:14.421Z,24.69
2023-05-16T14:36:17.289Z,24.69
2023-05-16T14:41:22.587Z,24.74
2023-05-16T14:46:25.617Z,24.75
2023-05-16T14:51:28.730Z,24.72
2023-05-16T14:56:33.645Z,24.66
2023-05-16T15:01:37.039Z,24.71
2023-05-16T15:06:39.949Z,24.80
2023-05-16T15:11:44.086Z,24.83
2023-05-16T15:16:47.358Z,24.87
2023-05-16T15:21:50.317Z,24.84
2023-05-16T15:26:56.118Z,24.80
2023-05-16T15:31:59.044Z,24.86
2023-05-16T15:37:02.546Z,24.95
2023-05-16T15:42:11.065Z,24.94
2023-05-16T15:47:14.510Z,25.01
2023-05-16T15:52:17.491Z,25.08
2023-05-16T15:57:21.754Z,25.12
2023-05-16T16:02:24.587Z,25.13
2023-05-16T16:07:27.615Z,25.11
2023-05-16T16:12:32.205Z,25.14
2023-05-16T16:17:35.259Z,25.20
2023-05-16T16:22:38.156Z,25.25
2023-05-16T16:27:42.665Z,25.26
2023-05-16T16:32:48.673Z,25.27
2023-05-16T16:38:05.744Z,25.25
2023-05-16T16:43:10.952Z,25.29
2023-05-16T16:48:14.075Z,25.21
2023-05-16T16:53:17.149Z,25.21
2023-05-16T16:58:21.500Z,25.23
2023-05-16T17:03:24.369Z,25.25
2023-05-16T17:08:27.401Z,25.32
2023-05-16T17:13:33.891Z,25.35
2023-05-16T17:18:37.275Z,25.39
2023-05-16T17:23:42.391Z,25.48
2023-05-16T17:28:48.355Z,25.56
2023-05-16T17:33:51.292Z,25.64
2023-05-16T17:38:54.161Z,25.72
2023-05-16T17:43:58.530Z,25.78
2023-05-16T17:49:01.394Z,25.80
2023-05-16T17:54:04.656Z,25.82
2023-05-16T17:59:09.812Z,25.95
2023-05-16T18:04:13.268Z,26.06
2023-05-16T18:09:16.390Z,26.12
2023-05-16T18:14:20.856Z,26.11
2023-05-16T18:19:24.077Z,26.11
2023-05-16T18:24:27.094Z,26.11
2023-05-16T18:29:31.384Z,26.10
2023-05-16T18:34:34.594Z,26.10
2023-05-16T18:39:37.726Z,26.13
2023-05-16T18:44:41.987Z,26.15
2023-05-16T18:49:44.963Z,26.18
2023-05-16T18:54:47.843Z,26.19
2023-05-16T18:59:53.666Z,26.21
2023-05-16T19:04:58.248Z,26.13
2023-05-16T19:10:03.722Z,26.22
2023-05-16T19:15:11.073Z,26.22
2023-05-16T19:20:14.207Z,26.23
2023-05-16T19:25:18.168Z,26.23
2023-05-16T19:30:23.311Z,26.26
2023-05-16T19:35:26.763Z,26.29
2023-05-16T19:40:29.926Z,26.33
2023-05-16T19:45:34.121Z,26.26
2023-05-16T19:50:37.003Z,26.35
2023-05-16T19:55:39.924Z,26.38
2023-05-16T20:00:44.289Z,26.41
2023-05-16T20:05:47.104Z,26.42
2023-05-16T20:10:49.870Z,26.43
2023-05-16T20:15:54.056Z,26.44
2023-05-16T20:20:58.610Z,26.43
2023-05-16T20:26:01.736Z,26.49
2023-05-16T20:31:06.065Z,26.46
2023-05-16T20:36:08.930Z,26.44
2023-05-16T20:41:11.936Z,26.40
2023-05-16T20:46:16.234Z,26.38
2023-05-16T20:51:19.131Z,26.36
2023-05-16T20:56:22.406Z,26.27
2023-05-16T21:01:26.863Z,26.21
2023-05-16T21:06:29.728Z,26.15
2023-05-16T21:11:32.937Z,26.05
2023-05-16T21:16:37.132Z,26.01
2023-05-16T21:21:40.094Z,25.92
2023-05-16T21:26:43.093Z,25.85
2023-05-16T21:31:47.365Z,25.76
2023-05-16T21:36:50.272Z,25.71
2023-05-16T21:41:53.103Z,25.63
2023-05-16T21:46:57.298Z,25.57
2023-05-16T21:52:00.278Z,25.49
2023-05-16T21:57:03.162Z,25.42
2023-05-16T22:02:08.198Z,25.39
2023-05-16T22:07:11.209Z,25.32
2023-05-16T22:12:14.095Z,25.28
2023-05-16T22:17:19.481Z,25.25
2023-05-16T22:22:22.439Z,25.19
2023-05-16T22:27:25.436Z,25.10
2023-05-16T22:32:29.785Z,25.10
2023-05-16T22:37:32.657Z,25.22
2023-05-16T22:42:35.630Z,25.32
2023-05-16T22:47:39.895Z,25.45
2023-05-16T22:52:42.868Z,25.52
2023-05-16T22:57:45.702Z,25.57
2023-05-16T23:02:50.129Z,25.61
2023-05-16T23:07:53.031Z,25.64
2023-05-16T23:12:56.140Z,25.67
2023-05-16T23:18:00.467Z,25.68
2023-05-16T23:23:03.492Z,25.65
2023-05-16T23:28:06.341Z,25.61
2023-05-16T23:33:10.631Z,25.54
2023-05-16T23:38:13.528Z,25.37
2023-05-16T23:43:16.743Z,25.29
2023-05-16T23:48:20.985Z,25.19
2023-05-16T23:53:28.811Z,25.10
2023-05-16T23:58:31.571Z,25.03
